sensor_id;sensor_type;location;lat;lon;timestamp;temperature;humidity
6822;DHT22;3449;48.728;8.968;2023-07-20T00:01:48;18.00;99.90
6822;DHT22;3449;48.728;8.968;2023-07-20T00:04:15;18.00;99.90
6822;DHT22;3449;48.728;8.968;2023-07-20T00:06:42;17.90;99.90
6822;DHT22;3449;48.728;8.968;2023-07-20T00:09:08;17.90;99.90
6822;DHT22;3449;48.728;8.968;2023-07-20T00:11:37;17.80;99.90
6822;DHT22;3449;48.728;8.968;2023-07-20T00:14:08;17.80;99.90
6822;DHT22;3449;48.728;8.968;2023-07-20T00:16:34;17.70;99.90
6822;DHT22;3449;48.728;8.968;2023-07-20T00:19:01;17.60;99.90
6822;DHT22;3449;48.728;8.968;2023-07-20T00:21:28;17.50;99.90
6822;DHT22;3449;48.728;8.968;2023-07-20T00:23:57;17.50;99.90
6822;DHT22;3449;48.728;8.968;2023-07-20T00:26:24;17.50;99.90
6822;DHT22;3449;48.728;8.968;2023-07-20T00:28:54;17.50;99.90
6822;DHT22;3449;48.728;8.968;2023-07-20T00:31:22;17.40;99.90
6822;DHT22;3449;48.728;8.968;2023-07-20T00:33:49;17.40;99.90
6822;DHT22;3449;48.728;8.968;2023-07-20T00:36:16;17.40;99.90
6822;DHT22;3449;48.728;8.968;2023-07-20T00:38:43;17.40;99.90
6822;DHT22;3449;48.728;8.968;2023-07-20T00:41:10;17.30;99.90
6822;DHT22;3449;48.728;8.968;2023-07-20T00:43:36;17.30;99.90
6822;DHT22;3449;48.728;8.968;2023-07-20T00:46:03;17.30;99.90
6822;DHT22;3449;48.728;8.968;2023-07-20T00:48:34;17.20;99.90
6822;DHT22;3449;48.728;8.968;2023-07-20T00:51:02;17.30;99.90
6822;DHT22;3449;48.728;8.968;2023-07-20T00:53:29;17.20;99.90
6822;DHT22;3449;48.728;8.968;2023-07-20T00:55:56;17.10;99.90
6822;DHT22;3449;48.728;8.968;2023-07-20T00:58:24;17.10;99.90
6822;DHT22;3449;48.728;8.968;2023-07-20T01:00:51;17.10;99.90
6822;DHT22;3449;48.728;8.968;2023-07-20T01:03:19;17.00;99.90
6822;DHT22;3449;48.728;8.968;2023-07-20T01:05:53;17.00;99.90
6822;DHT22;3449;48.728;8.968;2023-07-20T01:08:27;17.00;99.90
6822;DHT22;3449;48.728;8.968;2023-07-20T01:10:59;17.00;99.90
6822;DHT22;3449;48.728;8.968;2023-07-20T01:13:29;16.90;99.90
6822;DHT22;3449;48.728;8.968;2023-07-20T01:15:57;16.90;99.90
6822;DHT22;3449;48.728;8.968;2023-07-20T01:18:25;16.90;99.90
6822;DHT22;3449;48.728;8.968;2023-07-20T01:20:58;16.90;99.90
6822;DHT22;3449;48.728;8.968;2023-07-20T01:27:00;16.80;99.90
6822;DHT22;3449;48.728;8.968;2023-07-20T01:30:01;16.80;99.90
6822;DHT22;3449;48.728;8.968;2023-07-20T01:32:31;16.80;99.90
6822;DHT22;3449;48.728;8.968;2023-07-20T01:35:02;16.70;99.90
6822;DHT22;3449;48.728;8.968;2023-07-20T01:37:32;16.70;99.90
6822;DHT22;3449;48.728;8.968;2023-07-20T01:39:59;16.60;99.90
6822;DHT22;3449;48.728;8.968;2023-07-20T01:42:26;16.60;99.90
6822;DHT22;3449;48.728;8.968;2023-07-20T01:44:53;16.60;99.90
6822;DHT22;3449;48.728;8.968;2023-07-20T01:47:20;16.50;99.90
6822;DHT22;3449;48.728;8.968;2023-07-20T01:49:49;16.40;99.90
6822;DHT22;3449;48.728;8.968;2023-07-20T01:52:15;16.40;99.90
6822;DHT22;3449;48.728;8.968;2023-07-20T01:54:42;16.40;99.90
6822;DHT22;3449;48.728;8.968;2023-07-20T01:57:09;16.30;99.90
6822;DHT22;3449;48.728;8.968;2023-07-20T01:59:36;16.30;99.90
6822;DHT22;3449;48.728;8.968;2023-07-20T02:02:03;16.30;99.90
6822;DHT22;3449;48.728;8.968;2023-07-20T02:04:30;16.20;99.90
6822;DHT22;3449;48.728;8.968;2023-07-20T02:06:58;16.20;99.90
6822;DHT22;3449;48.728;8.968;2023-07-20T02:09:25;16.10;99.90
6822;DHT22;3449;48.728;8.968;2023-07-20T02:11:51;16.10;99.90
6822;DHT22;3449;48.728;8.968;2023-07-20T02:14:18;16.00;99.90
6822;DHT22;3449;48.728;8.968;2023-07-20T02:16:45;16.00;99.90
6822;DHT22;3449;48.728;8.968;2023-07-20T02:19:14;16.00;99.90
6822;DHT22;3449;48.728;8.968;2023-07-20T02:21:41;16.00;99.90
6822;DHT22;3449;48.728;8.968;2023-07-20T02:24:09;15.90;99.90
6822;DHT22;3449;48.728;8.968;2023-07-20T02:26:36;15.90;99.90
6822;DHT22;3449;48.728;8.968;2023-07-20T02:29:03;15.90;99.90
6822;DHT22;3449;48.728;8.968;2023-07-20T02:31:30;15.90;99.90
6822;DHT22;3449;48.728;8.968;2023-07-20T02:33:57;15.80;99.90
6822;DHT22;3449;48.728;8.968;2023-07-20T02:36:26;15.80;99.90
6822;DHT22;3449;48.728;8.968;2023-07-20T02:38:53;15.70;99.90
6822;DHT22;3449;48.728;8.968;2023-07-20T02:41:21;15.70;99.90
6822;DHT22;3449;48.728;8.968;2023-07-20T02:43:48;15.70;99.90
6822;DHT22;3449;48.728;8.968;2023-07-20T02:46:15;15.70;99.90
6822;DHT22;3449;48.728;8.968;2023-07-20T02:48:42;15.60;99.90
6822;DHT22;3449;48.728;8.968;2023-07-20T02:51:09;15.60;99.90
6822;DHT22;3449;48.728;8.968;2023-07-20T02:53:37;15.60;99.90
6822;DHT22;3449;48.728;8.968;2023-07-20T02:56:04;15.50;99.90
6822;DHT22;3449;48.728;8.968;2023-07-20T02:58:39;15.50;99.90
6822;DHT22;3449;48.728;8.968;2023-07-20T03:01:08;15.40;99.90
6822;DHT22;3449;48.728;8.968;2023-07-20T03:03:38;15.40;99.90
6822;DHT22;3449;48.728;8.968;2023-07-20T03:06:05;15.40;99.90
6822;DHT22;3449;48.728;8.968;2023-07-20T03:08:34;15.40;99.90
6822;DHT22;3449;48.728;8.968;2023-07-20T03:11:01;15.40;99.90
6822;DHT22;3449;48.728;8.968;2023-07-20T03:13:32;15.30;99.90
6822;DHT22;3449;48.728;8.968;2023-07-20T03:15:59;15.30;99.90
6822;DHT22;3449;48.728;8.968;2023-07-20T03:18:25;15.20;99.90
6822;DHT22;3449;48.728;8.968;2023-07-20T03:20:52;15.20;99.90
6822;DHT22;3449;48.728;8.968;2023-07-20T03:23:19;15.20;99.90
6822;DHT22;3449;48.728;8.968;2023-07-20T03:25:46;15.20;99.90
6822;DHT22;3449;48.728;8.968;2023-07-20T03:28:13;15.10;99.90
6822;DHT22;3449;48.728;8.968;2023-07-20T03:30:41;15.10;99.90
6822;DHT22;3449;48.728;8.968;2023-07-20T03:33:08;15.00;99.90
6822;DHT22;3449;48.728;8.968;2023-07-20T03:35:34;15.00;99.90
6822;DHT22;3449;48.728;8.968;2023-07-20T03:38:01;15.00;99.90
6822;DHT22;3449;48.728;8.968;2023-07-20T03:40:28;15.00;99.90
6822;DHT22;3449;48.728;8.968;2023-07-20T03:42:55;15.00;99.90
6822;DHT22;3449;48.728;8.968;2023-07-20T03:45:22;15.00;99.90
6822;DHT22;3449;48.728;8.968;2023-07-20T03:47:50;15.00;99.90
6822;DHT22;3449;48.728;8.968;2023-07-20T03:50:17;15.00;99.90
6822;DHT22;3449;48.728;8.968;2023-07-20T03:52:44;15.00;99.90
6822;DHT22;3449;48.728;8.968;2023-07-20T03:55:11;15.00;99.90
6822;DHT22;3449;48.728;8.968;2023-07-20T03:57:38;15.00;99.90
6822;DHT22;3449;48.728;8.968;2023-07-20T04:00:07;15.10;99.90
6822;DHT22;3449;48.728;8.968;2023-07-20T04:02:34;15.10;99.90
6822;DHT22;3449;48.728;8.968;2023-07-20T04:05:03;15.20;99.90
6822;DHT22;3449;48.728;8.968;2023-07-20T04:07:30;15.20;99.90
6822;DHT22;3449;48.728;8.968;2023-07-20T04:09:58;15.30;99.90
6822;DHT22;3449;48.728;8.968;2023-07-20T04:12:25;15.30;99.90
6822;DHT22;3449;48.728;8.968;2023-07-20T04:14:52;15.40;99.90
6822;DHT22;3449;48.728;8.968;2023-07-20T04:17:18;15.50;99.90
6822;DHT22;3449;48.728;8.968;2023-07-20T04:19:45;15.60;99.90
6822;DHT22;3449;48.728;8.968;2023-07-20T04:22:16;15.60;99.90
6822;DHT22;3449;48.728;8.968;2023-07-20T04:24:42;15.70;99.90
6822;DHT22;3449;48.728;8.968;2023-07-20T04:27:09;15.80;99.90
6822;DHT22;3449;48.728;8.968;2023-07-20T04:29:38;15.80;99.90
6822;DHT22;3449;48.728;8.968;2023-07-20T04:32:06;15.90;99.90
6822;DHT22;3449;48.728;8.968;2023-07-20T04:34:33;15.90;99.90
6822;DHT22;3449;48.728;8.968;2023-07-20T04:37:03;16.00;99.90
6822;DHT22;3449;48.728;8.968;2023-07-20T04:39:31;16.00;99.90
6822;DHT22;3449;48.728;8.968;2023-07-20T04:41:58;16.00;99.90
6822;DHT22;3449;48.728;8.968;2023-07-20T04:44:25;16.00;99.90
6822;DHT22;3449;48.728;8.968;2023-07-20T04:46:52;16.10;99.90
6822;DHT22;3449;48.728;8.968;2023-07-20T04:49:19;16.10;99.90
6822;DHT22;3449;48.728;8.968;2023-07-20T04:51:46;16.10;99.90
6822;DHT22;3449;48.728;8.968;2023-07-20T04:54:13;16.10;99.90
6822;DHT22;3449;48.728;8.968;2023-07-20T04:56:44;16.20;99.90
6822;DHT22;3449;48.728;8.968;2023-07-20T04:59:11;16.30;99.90
6822;DHT22;3449;48.728;8.968;2023-07-20T05:01:38;16.30;99.90
6822;DHT22;3449;48.728;8.968;2023-07-20T05:04:08;16.40;99.90
6822;DHT22;3449;48.728;8.968;2023-07-20T05:06:34;16.40;99.90
6822;DHT22;3449;48.728;8.968;2023-07-20T05:09:01;16.40;99.90
6822;DHT22;3449;48.728;8.968;2023-07-20T05:11:28;16.50;99.90
6822;DHT22;3449;48.728;8.968;2023-07-20T05:13:56;16.50;99.90
6822;DHT22;3449;48.728;8.968;2023-07-20T05:16:23;16.40;99.90
6822;DHT22;3449;48.728;8.968;2023-07-20T05:18:50;16.40;99.90
6822;DHT22;3449;48.728;8.968;2023-07-20T05:21:17;16.40;99.90
6822;DHT22;3449;48.728;8.968;2023-07-20T05:23:44;16.30;99.90
6822;DHT22;3449;48.728;8.968;2023-07-20T05:26:11;16.30;99.90
6822;DHT22;3449;48.728;8.968;2023-07-20T05:28:40;16.30;99.90
6822;DHT22;3449;48.728;8.968;2023-07-20T05:31:08;16.40;99.90
6822;DHT22;3449;48.728;8.968;2023-07-20T05:33:35;16.40;99.90
6822;DHT22;3449;48.728;8.968;2023-07-20T05:36:02;16.50;99.90
6822;DHT22;3449;48.728;8.968;2023-07-20T05:38:29;16.50;99.90
6822;DHT22;3449;48.728;8.968;2023-07-20T05:40:59;16.60;99.90
6822;DHT22;3449;48.728;8.968;2023-07-20T05:43:26;16.80;99.90
6822;DHT22;3449;48.728;8.968;2023-07-20T05:45:53;16.90;99.90
6822;DHT22;3449;48.728;8.968;2023-07-20T05:48:21;17.00;99.90
6822;DHT22;3449;48.728;8.968;2023-07-20T05:50:50;17.10;99.90
6822;DHT22;3449;48.728;8.968;2023-07-20T05:53:17;17.20;99.90
6822;DHT22;3449;48.728;8.968;2023-07-20T05:55:43;17.20;99.90
6822;DHT22;3449;48.728;8.968;2023-07-20T05:58:10;17.30;99.90
6822;DHT22;3449;48.728;8.968;2023-07-20T06:00:37;17.30;99.90
6822;DHT22;3449;48.728;8.968;2023-07-20T06:03:05;17.40;99.90
6822;DHT22;3449;48.728;8.968;2023-07-20T06:05:35;17.50;99.90
6822;DHT22;3449;48.728;8.968;2023-07-20T06:08:02;17.60;99.90
6822;DHT22;3449;48.728;8.968;2023-07-20T06:10:29;17.70;99.90
6822;DHT22;3449;48.728;8.968;2023-07-20T06:12:55;17.80;99.90
6822;DHT22;3449;48.728;8.968;2023-07-20T06:15:27;17.80;99.90
6822;DHT22;3449;48.728;8.968;2023-07-20T06:17:54;17.90;99.90
6822;DHT22;3449;48.728;8.968;2023-07-20T06:20:22;18.00;99.90
6822;DHT22;3449;48.728;8.968;2023-07-20T06:22:53;18.00;99.90
6822;DHT22;3449;48.728;8.968;2023-07-20T06:25:20;18.20;99.90
6822;DHT22;3449;48.728;8.968;2023-07-20T06:27:49;18.30;99.90
6822;DHT22;3449;48.728;8.968;2023-07-20T06:30:16;18.40;99.90
6822;DHT22;3449;48.728;8.968;2023-07-20T06:32:43;18.50;99.90
6822;DHT22;3449;48.728;8.968;2023-07-20T06:35:10;18.60;99.90
6822;DHT22;3449;48.728;8.968;2023-07-20T06:37:37;18.60;99.90
6822;DHT22;3449;48.728;8.968;2023-07-20T06:40:06;18.60;99.90
6822;DHT22;3449;48.728;8.968;2023-07-20T06:42:34;18.60;99.90
6822;DHT22;3449;48.728;8.968;2023-07-20T06:45:02;18.60;99.90
6822;DHT22;3449;48.728;8.968;2023-07-20T06:47:28;18.70;99.90
6822;DHT22;3449;48.728;8.968;2023-07-20T06:49:56;18.80;99.90
6822;DHT22;3449;48.728;8.968;2023-07-20T06:52:23;18.80;99.90
6822;DHT22;3449;48.728;8.968;2023-07-20T06:54:50;18.80;99.90
6822;DHT22;3449;48.728;8.968;2023-07-20T06:57:18;18.90;99.90
6822;DHT22;3449;48.728;8.968;2023-07-20T06:59:45;18.90;99.90
6822;DHT22;3449;48.728;8.968;2023-07-20T07:02:12;19.00;99.90
6822;DHT22;3449;48.728;8.968;2023-07-20T07:04:42;19.00;99.90
6822;DHT22;3449;48.728;8.968;2023-07-20T07:07:09;19.10;99.90
6822;DHT22;3449;48.728;8.968;2023-07-20T07:09:36;19.10;99.90
6822;DHT22;3449;48.728;8.968;2023-07-20T07:12:04;19.50;99.90
6822;DHT22;3449;48.728;8.968;2023-07-20T07:14:32;19.80;99.90
6822;DHT22;3449;48.728;8.968;2023-07-20T07:16:59;20.00;99.90
6822;DHT22;3449;48.728;8.968;2023-07-20T07:19:26;20.20;99.90
6822;DHT22;3449;48.728;8.968;2023-07-20T07:21:52;20.30;99.90
6822;DHT22;3449;48.728;8.968;2023-07-20T07:24:19;20.50;99.90
6822;DHT22;3449;48.728;8.968;2023-07-20T07:26:46;20.80;99.90
6822;DHT22;3449;48.728;8.968;2023-07-20T07:29:13;21.20;99.90
6822;DHT22;3449;48.728;8.968;2023-07-20T07:31:41;21.40;99.90
6822;DHT22;3449;48.728;8.968;2023-07-20T07:34:11;21.30;99.90
6822;DHT22;3449;48.728;8.968;2023-07-20T07:36:38;21.50;99.90
6822;DHT22;3449;48.728;8.968;2023-07-20T07:39:04;21.40;99.90
6822;DHT22;3449;48.728;8.968;2023-07-20T07:41:31;21.60;99.90
6822;DHT22;3449;48.728;8.968;2023-07-20T07:43:58;21.60;99.90
6822;DHT22;3449;48.728;8.968;2023-07-20T07:46:25;21.90;99.90
6822;DHT22;3449;48.728;8.968;2023-07-20T07:48:53;22.20;99.90
6822;DHT22;3449;48.728;8.968;2023-07-20T07:51:22;22.40;99.90
6822;DHT22;3449;48.728;8.968;2023-07-20T07:53:50;22.40;99.90
6822;DHT22;3449;48.728;8.968;2023-07-20T07:56:17;22.40;99.90
6822;DHT22;3449;48.728;8.968;2023-07-20T07:58:48;22.50;99.90
6822;DHT22;3449;48.728;8.968;2023-07-20T08:01:14;22.40;99.90
6822;DHT22;3449;48.728;8.968;2023-07-20T08:03:42;22.50;99.90
6822;DHT22;3449;48.728;8.968;2023-07-20T08:06:12;22.50;99.90
6822;DHT22;3449;48.728;8.968;2023-07-20T08:08:40;22.20;99.90
6822;DHT22;3449;48.728;8.968;2023-07-20T08:11:08;22.20;99.90
6822;DHT22;3449;48.728;8.968;2023-07-20T08:13:35;22.40;99.90
6822;DHT22;3449;48.728;8.968;2023-07-20T08:16:02;22.60;99.90
6822;DHT22;3449;48.728;8.968;2023-07-20T08:18:29;22.70;99.90
6822;DHT22;3449;48.728;8.968;2023-07-20T08:20:56;22.60;99.90
6822;DHT22;3449;48.728;8.968;2023-07-20T08:23:25;22.40;99.90
6822;DHT22;3449;48.728;8.968;2023-07-20T08:25:53;22.50;99.90
6822;DHT22;3449;48.728;8.968;2023-07-20T08:28:21;22.50;99.90
6822;DHT22;3449;48.728;8.968;2023-07-20T08:30:49;22.80;99.90
6822;DHT22;3449;48.728;8.968;2023-07-20T08:33:17;23.00;99.90
6822;DHT22;3449;48.728;8.968;2023-07-20T08:35:45;23.30;99.90
6822;DHT22;3449;48.728;8.968;2023-07-20T08:38:14;23.70;99.90
6822;DHT22;3449;48.728;8.968;2023-07-20T08:40:45;23.80;99.90
6822;DHT22;3449;48.728;8.968;2023-07-20T08:43:14;23.50;99.90
6822;DHT22;3449;48.728;8.968;2023-07-20T08:45:42;23.20;99.90
6822;DHT22;3449;48.728;8.968;2023-07-20T08:48:12;23.40;99.90
6822;DHT22;3449;48.728;8.968;2023-07-20T08:50:39;23.80;99.90
6822;DHT22;3449;48.728;8.968;2023-07-20T08:53:06;23.90;99.90
6822;DHT22;3449;48.728;8.968;2023-07-20T08:55:34;24.30;99.90
6822;DHT22;3449;48.728;8.968;2023-07-20T08:58:05;24.40;99.90
6822;DHT22;3449;48.728;8.968;2023-07-20T09:00:35;24.90;99.90
6822;DHT22;3449;48.728;8.968;2023-07-20T09:03:03;24.60;99.90
6822;DHT22;3449;48.728;8.968;2023-07-20T09:05:30;24.00;99.90
6822;DHT22;3449;48.728;8.968;2023-07-20T09:07:57;23.80;99.90
6822;DHT22;3449;48.728;8.968;2023-07-20T09:10:24;23.80;99.90
6822;DHT22;3449;48.728;8.968;2023-07-20T09:12:51;24.10;99.90
6822;DHT22;3449;48.728;8.968;2023-07-20T09:15:20;24.40;99.90
6822;DHT22;3449;48.728;8.968;2023-07-20T09:17:47;24.30;99.90
6822;DHT22;3449;48.728;8.968;2023-07-20T09:20:16;24.00;99.90
6822;DHT22;3449;48.728;8.968;2023-07-20T09:22:43;23.70;99.90
6822;DHT22;3449;48.728;8.968;2023-07-20T09:25:12;23.60;99.90
6822;DHT22;3449;48.728;8.968;2023-07-20T09:27:40;24.10;99.90
6822;DHT22;3449;48.728;8.968;2023-07-20T09:30:09;24.60;99.90
6822;DHT22;3449;48.728;8.968;2023-07-20T09:32:40;25.00;99.90
6822;DHT22;3449;48.728;8.968;2023-07-20T09:35:13;25.10;99.90
6822;DHT22;3449;48.728;8.968;2023-07-20T09:37:46;25.20;99.90
6822;DHT22;3449;48.728;8.968;2023-07-20T09:40:15;25.00;99.90
6822;DHT22;3449;48.728;8.968;2023-07-20T09:42:42;24.60;99.90
6822;DHT22;3449;48.728;8.968;2023-07-20T09:45:10;24.30;99.90
6822;DHT22;3449;48.728;8.968;2023-07-20T09:47:37;23.90;99.90
6822;DHT22;3449;48.728;8.968;2023-07-20T09:50:08;23.60;99.90
6822;DHT22;3449;48.728;8.968;2023-07-20T09:52:38;23.30;99.90
6822;DHT22;3449;48.728;8.968;2023-07-20T09:55:07;23.20;99.90
6822;DHT22;3449;48.728;8.968;2023-07-20T09:57:35;23.10;99.90
6822;DHT22;3449;48.728;8.968;2023-07-20T10:00:04;23.40;99.90
6822;DHT22;3449;48.728;8.968;2023-07-20T10:02:37;23.50;99.90
6822;DHT22;3449;48.728;8.968;2023-07-20T10:05:11;23.50;99.90
6822;DHT22;3449;48.728;8.968;2023-07-20T10:07:43;23.30;99.90
6822;DHT22;3449;48.728;8.968;2023-07-20T10:10:11;23.90;99.90
6822;DHT22;3449;48.728;8.968;2023-07-20T10:12:41;24.80;99.90
6822;DHT22;3449;48.728;8.968;2023-07-20T10:15:18;25.10;99.90
6822;DHT22;3449;48.728;8.968;2023-07-20T10:17:58;25.30;99.90
6822;DHT22;3449;48.728;8.968;2023-07-20T10:20:27;24.80;99.90
6822;DHT22;3449;48.728;8.968;2023-07-20T10:22:58;24.20;99.90
6822;DHT22;3449;48.728;8.968;2023-07-20T10:25:25;23.90;99.90
6822;DHT22;3449;48.728;8.968;2023-07-20T10:27:55;23.70;99.90
6822;DHT22;3449;48.728;8.968;2023-07-20T10:30:26;23.60;99.90
6822;DHT22;3449;48.728;8.968;2023-07-20T10:32:53;24.00;99.90
6822;DHT22;3449;48.728;8.968;2023-07-20T10:35:20;24.00;99.90
6822;DHT22;3449;48.728;8.968;2023-07-20T10:37:53;23.80;99.90
6822;DHT22;3449;48.728;8.968;2023-07-20T10:40:28;24.00;99.90
6822;DHT22;3449;48.728;8.968;2023-07-20T10:42:57;24.90;99.90
6822;DHT22;3449;48.728;8.968;2023-07-20T10:45:39;25.50;99.90
6822;DHT22;3449;48.728;8.968;2023-07-20T10:48:12;25.80;99.90
6822;DHT22;3449;48.728;8.968;2023-07-20T10:50:40;26.40;99.90
6822;DHT22;3449;48.728;8.968;2023-07-20T10:53:13;26.70;99.90
6822;DHT22;3449;48.728;8.968;2023-07-20T10:55:41;26.80;99.90
6822;DHT22;3449;48.728;8.968;2023-07-20T10:58:10;25.90;99.90
6822;DHT22;3449;48.728;8.968;2023-07-20T11:00:39;25.20;99.90
6822;DHT22;3449;48.728;8.968;2023-07-20T11:03:28;24.90;99.90
6822;DHT22;3449;48.728;8.968;2023-07-20T11:05:57;24.90;99.90
6822;DHT22;3449;48.728;8.968;2023-07-20T11:08:41;25.20;99.90
6822;DHT22;3449;48.728;8.968;2023-07-20T11:11:25;25.60;99.90
6822;DHT22;3449;48.728;8.968;2023-07-20T11:13:57;25.20;99.90
6822;DHT22;3449;48.728;8.968;2023-07-20T11:16:38;25.20;99.90
6822;DHT22;3449;48.728;8.968;2023-07-20T11:19:06;25.20;99.90
6822;DHT22;3449;48.728;8.968;2023-07-20T11:21:36;25.80;99.90
6822;DHT22;3449;48.728;8.968;2023-07-20T11:24:06;26.30;99.90
6822;DHT22;3449;48.728;8.968;2023-07-20T11:26:44;26.40;99.90
6822;DHT22;3449;48.728;8.968;2023-07-20T11:29:11;26.50;99.90
6822;DHT22;3449;48.728;8.968;2023-07-20T11:31:39;26.50;99.90
6822;DHT22;3449;48.728;8.968;2023-07-20T11:34:09;26.20;99.90
6822;DHT22;3449;48.728;8.968;2023-07-20T11:36:38;25.60;99.90
6822;DHT22;3449;48.728;8.968;2023-07-20T11:39:09;26.20;99.90
6822;DHT22;3449;48.728;8.968;2023-07-20T11:41:36;26.80;99.90
6822;DHT22;3449;48.728;8.968;2023-07-20T11:44:03;26.90;99.90
6822;DHT22;3449;48.728;8.968;2023-07-20T11:46:31;26.50;99.80
6822;DHT22;3449;48.728;8.968;2023-07-20T11:48:59;26.00;99.90
6822;DHT22;3449;48.728;8.968;2023-07-20T11:51:28;26.50;99.90
6822;DHT22;3449;48.728;8.968;2023-07-20T11:53:55;26.80;99.50
6822;DHT22;3449;48.728;8.968;2023-07-20T11:56:24;26.90;99.30
6822;DHT22;3449;48.728;8.968;2023-07-20T11:58:54;26.50;98.90
6822;DHT22;3449;48.728;8.968;2023-07-20T12:01:22;26.00;99.70
6822;DHT22;3449;48.728;8.968;2023-07-20T12:03:49;26.00;99.90
6822;DHT22;3449;48.728;8.968;2023-07-20T12:06:16;26.30;99.90
6822;DHT22;3449;48.728;8.968;2023-07-20T12:08:43;26.70;99.50
6822;DHT22;3449;48.728;8.968;2023-07-20T12:11:10;27.00;98.10
6822;DHT22;3449;48.728;8.968;2023-07-20T12:13:42;27.40;98.90
6822;DHT22;3449;48.728;8.968;2023-07-20T12:16:10;27.30;99.00
6822;DHT22;3449;48.728;8.968;2023-07-20T12:18:38;27.20;97.50
6822;DHT22;3449;48.728;8.968;2023-07-20T12:21:06;26.60;98.10
6822;DHT22;3449;48.728;8.968;2023-07-20T12:23:40;26.20;98.40
6822;DHT22;3449;48.728;8.968;2023-07-20T12:26:07;26.40;98.90
6822;DHT22;3449;48.728;8.968;2023-07-20T12:28:40;26.40;97.40
6822;DHT22;3449;48.728;8.968;2023-07-20T12:31:07;27.10;99.10
6822;DHT22;3449;48.728;8.968;2023-07-20T12:33:35;27.60;96.90
6822;DHT22;3449;48.728;8.968;2023-07-20T12:36:02;27.40;97.60
6822;DHT22;3449;48.728;8.968;2023-07-20T12:38:29;27.30;97.00
6822;DHT22;3449;48.728;8.968;2023-07-20T12:40:56;27.40;97.20
6822;DHT22;3449;48.728;8.968;2023-07-20T12:43:24;27.30;97.80
6822;DHT22;3449;48.728;8.968;2023-07-20T12:45:52;27.60;96.30
6822;DHT22;3449;48.728;8.968;2023-07-20T12:48:20;27.90;96.80
6822;DHT22;3449;48.728;8.968;2023-07-20T12:50:47;27.90;96.20
6822;DHT22;3449;48.728;8.968;2023-07-20T12:53:16;28.10;95.20
6822;DHT22;3449;48.728;8.968;2023-07-20T12:55:42;27.80;94.50
6822;DHT22;3449;48.728;8.968;2023-07-20T12:58:11;27.80;93.90
6822;DHT22;3449;48.728;8.968;2023-07-20T13:00:38;27.60;93.80
6822;DHT22;3449;48.728;8.968;2023-07-20T13:03:07;27.50;94.20
6822;DHT22;3449;48.728;8.968;2023-07-20T13:05:34;28.00;94.80
6822;DHT22;3449;48.728;8.968;2023-07-20T13:08:01;27.80;92.10
6822;DHT22;3449;48.728;8.968;2023-07-20T13:10:29;27.40;91.80
6822;DHT22;3449;48.728;8.968;2023-07-20T13:12:56;27.40;92.90
6822;DHT22;3449;48.728;8.968;2023-07-20T13:15:24;27.80;92.40
6822;DHT22;3449;48.728;8.968;2023-07-20T13:17:55;27.90;91.40
6822;DHT22;3449;48.728;8.968;2023-07-20T13:20:24;27.90;90.80
6822;DHT22;3449;48.728;8.968;2023-07-20T13:22:53;28.30;91.70
6822;DHT22;3449;48.728;8.968;2023-07-20T13:25:20;28.50;91.40
6822;DHT22;3449;48.728;8.968;2023-07-20T13:27:47;28.30;91.90
6822;DHT22;3449;48.728;8.968;2023-07-20T13:30:14;28.40;91.20
6822;DHT22;3449;48.728;8.968;2023-07-20T13:32:43;28.70;90.80
6822;DHT22;3449;48.728;8.968;2023-07-20T13:35:13;28.80;90.70
6822;DHT22;3449;48.728;8.968;2023-07-20T13:37:41;29.00;91.00
6822;DHT22;3449;48.728;8.968;2023-07-20T13:40:09;29.40;90.40
6822;DHT22;3449;48.728;8.968;2023-07-20T13:42:40;28.90;90.10
6822;DHT22;3449;48.728;8.968;2023-07-20T13:45:08;28.80;90.20
6822;DHT22;3449;48.728;8.968;2023-07-20T13:47:34;28.90;88.80
6822;DHT22;3449;48.728;8.968;2023-07-20T13:50:01;28.80;89.10
6822;DHT22;3449;48.728;8.968;2023-07-20T13:52:28;29.00;87.00
6822;DHT22;3449;48.728;8.968;2023-07-20T13:54:56;29.10;90.60
6822;DHT22;3449;48.728;8.968;2023-07-20T13:57:23;29.10;87.90
6822;DHT22;3449;48.728;8.968;2023-07-20T14:00:01;28.60;87.90
6822;DHT22;3449;48.728;8.968;2023-07-20T14:02:30;28.10;89.20
6822;DHT22;3449;48.728;8.968;2023-07-20T14:04:57;27.70;91.10
6822;DHT22;3449;48.728;8.968;2023-07-20T14:07:25;27.80;90.10
6822;DHT22;3449;48.728;8.968;2023-07-20T14:09:52;27.20;88.60
6822;DHT22;3449;48.728;8.968;2023-07-20T14:12:21;26.90;88.90
6822;DHT22;3449;48.728;8.968;2023-07-20T14:14:47;26.90;90.30
6822;DHT22;3449;48.728;8.968;2023-07-20T14:17:14;26.80;89.80
6822;DHT22;3449;48.728;8.968;2023-07-20T14:19:41;27.10;90.20
6822;DHT22;3449;48.728;8.968;2023-07-20T14:22:11;27.70;88.90
6822;DHT22;3449;48.728;8.968;2023-07-20T14:24:38;27.60;88.70
6822;DHT22;3449;48.728;8.968;2023-07-20T14:27:09;27.10;89.80
6822;DHT22;3449;48.728;8.968;2023-07-20T14:29:40;26.70;89.70
6822;DHT22;3449;48.728;8.968;2023-07-20T14:32:07;26.30;90.00
6822;DHT22;3449;48.728;8.968;2023-07-20T14:34:35;26.80;89.60
6822;DHT22;3449;48.728;8.968;2023-07-20T14:37:06;27.10;90.10
6822;DHT22;3449;48.728;8.968;2023-07-20T14:39:33;27.40;90.60
6822;DHT22;3449;48.728;8.968;2023-07-20T14:42:00;27.70;89.90
6822;DHT22;3449;48.728;8.968;2023-07-20T14:44:29;27.90;90.10
6822;DHT22;3449;48.728;8.968;2023-07-20T14:46:57;27.90;89.10
6822;DHT22;3449;48.728;8.968;2023-07-20T14:49:26;28.00;90.30
6822;DHT22;3449;48.728;8.968;2023-07-20T14:51:53;27.70;88.90
6822;DHT22;3449;48.728;8.968;2023-07-20T14:54:20;28.20;90.00
6822;DHT22;3449;48.728;8.968;2023-07-20T14:56:51;28.40;89.00
6822;DHT22;3449;48.728;8.968;2023-07-20T14:59:19;28.30;88.70
6822;DHT22;3449;48.728;8.968;2023-07-20T15:01:46;28.30;87.50
6822;DHT22;3449;48.728;8.968;2023-07-20T15:04:14;28.20;88.30
6822;DHT22;3449;48.728;8.968;2023-07-20T15:06:44;28.50;86.40
6822;DHT22;3449;48.728;8.968;2023-07-20T15:09:13;28.00;86.50
6822;DHT22;3449;48.728;8.968;2023-07-20T15:11:40;28.30;88.90
6822;DHT22;3449;48.728;8.968;2023-07-20T15:14:07;28.30;87.50
6822;DHT22;3449;48.728;8.968;2023-07-20T15:16:34;28.20;86.30
6822;DHT22;3449;48.728;8.968;2023-07-20T15:19:02;28.40;86.00
6822;DHT22;3449;48.728;8.968;2023-07-20T15:21:31;28.10;87.70
6822;DHT22;3449;48.728;8.968;2023-07-20T15:23:58;28.10;87.60
6822;DHT22;3449;48.728;8.968;2023-07-20T15:26:25;28.20;86.80
6822;DHT22;3449;48.728;8.968;2023-07-20T15:28:52;28.10;86.10
6822;DHT22;3449;48.728;8.968;2023-07-20T15:31:19;28.00;87.30
6822;DHT22;3449;48.728;8.968;2023-07-20T15:33:46;28.10;87.90
6822;DHT22;3449;48.728;8.968;2023-07-20T15:36:12;28.00;86.10
6822;DHT22;3449;48.728;8.968;2023-07-20T15:38:41;28.00;88.10
6822;DHT22;3449;48.728;8.968;2023-07-20T15:41:07;28.00;87.40
6822;DHT22;3449;48.728;8.968;2023-07-20T15:43:34;28.20;88.80
6822;DHT22;3449;48.728;8.968;2023-07-20T15:46:12;28.20;86.30
6822;DHT22;3449;48.728;8.968;2023-07-20T15:48:53;28.30;86.90
6822;DHT22;3449;48.728;8.968;2023-07-20T15:51:21;28.20;84.10
6822;DHT22;3449;48.728;8.968;2023-07-20T15:53:49;28.20;84.60
6822;DHT22;3449;48.728;8.968;2023-07-20T15:56:16;28.10;84.30
6822;DHT22;3449;48.728;8.968;2023-07-20T15:58:43;28.10;84.30
6822;DHT22;3449;48.728;8.968;2023-07-20T16:01:10;27.90;82.00
6822;DHT22;3449;48.728;8.968;2023-07-20T16:03:37;27.40;84.10
6822;DHT22;3449;48.728;8.968;2023-07-20T16:06:04;27.00;84.90
6822;DHT22;3449;48.728;8.968;2023-07-20T16:08:31;27.00;86.50
6822;DHT22;3449;48.728;8.968;2023-07-20T16:10:59;26.90;86.90
6822;DHT22;3449;48.728;8.968;2023-07-20T16:13:28;26.70;86.10